Time;durP1;ratioP1;P1;durP2;ratioP2;P2;SDS_P1;SDS_P2;PMS_P1;PMS_P2;Temp;Humidity;BMP_temperature;BMP_pressure;BME280_temperature;BME280_humidity;BME280_pressure;Samples;Min_cycle;Max_cycle;Signal;HPM_P1;HPM_P2
2022/04/25 00:00:06;;;;;;;11.57;6.75;;;;;;;7.79;99.58;100835.53;5070777;28;20565;-53
2022/04/25 00:02:36;;;;;;;12.70;6.53;;;;;;;7.78;100.00;100832.09;5070707;28;20048;-49
2022/04/25 00:05:05;;;;;;;16.13;6.88;;;;;;;7.76;100.00;100828.69;5070444;28;20927;-49
2022/04/25 00:07:33;;;;;;;12.75;7.18;;;;;;;7.75;100.00;100827.00;5071314;28;20064;-52
2022/04/25 00:10:01;;;;;;;11.43;6.55;;;;;;;7.63;100.00;100834.66;5071126;28;20566;-54
2022/04/25 00:12:30;;;;;;;12.68;6.80;;;;;;;7.61;100.00;100830.34;5071058;28;20399;-50
2022/04/25 00:14:58;;;;;;;14.35;7.35;;;;;;;7.56;100.00;100834.97;5068239;28;20121;-53
2022/04/25 00:17:26;;;;;;;10.90;6.57;;;;;;;7.59;100.00;100833.97;5066985;28;20044;-50
2022/04/25 00:19:56;;;;;;;13.05;7.13;;;;;;;7.54;100.00;100830.75;5070421;28;20102;-49
2022/04/25 00:22:24;;;;;;;14.93;7.40;;;;;;;7.53;100.00;100843.00;5071020;28;20052;-53
2022/04/25 00:24:52;;;;;;;13.65;7.15;;;;;;;7.53;100.00;100839.56;5071035;28;20056;-51
2022/04/25 00:27:22;;;;;;;16.55;7.25;;;;;;;7.51;100.00;100834.41;5070855;28;20048;-49
2022/04/25 00:29:54;;;;;;;13.68;7.03;;;;;;;7.47;100.00;100843.31;5070430;28;20510;-48
2022/04/25 00:32:23;;;;;;;11.80;7.18;;;;;;;7.44;100.00;100830.38;5069351;28;20041;-49
2022/04/25 00:34:52;;;;;;;13.00;7.25;;;;;;;7.46;100.00;100839.03;5070686;28;20054;-49
2022/04/25 00:37:21;;;;;;;13.13;6.78;;;;;;;7.49;100.00;100836.25;5070552;28;20068;-51
2022/04/25 00:39:50;;;;;;;14.27;7.70;;;;;;;7.38;100.00;100839.41;5068188;28;20039;-48
2022/04/25 00:42:18;;;;;;;14.00;7.25;;;;;;;7.40;100.00;100841.94;5064904;28;20052;-48
2022/04/25 00:44:47;;;;;;;15.93;8.05;;;;;;;7.52;100.00;100845.69;5070427;28;20436;-50
2022/04/25 00:47:15;;;;;;;13.07;7.50;;;;;;;7.39;100.00;100833.25;5070894;28;20415;-49
2022/04/25 00:49:44;;;;;;;14.27;7.53;;;;;;;7.51;100.00;100839.63;5070957;28;20525;-51
2022/04/25 00:52:12;;;;;;;15.95;7.93;;;;;;;7.55;100.00;100843.78;5070785;28;20036;-54
2022/04/25 00:54:42;;;;;;;12.30;7.32;;;;;;;7.56;100.00;100832.38;5070579;28;20044;-52
2022/04/25 00:57:11;;;;;;;13.05;7.00;;;;;;;7.65;100.00;100840.66;5069419;28;20055;-52
2022/04/25 00:59:40;;;;;;;12.82;7.57;;;;;;;7.68;100.00;100836.13;5073694;28;20033;-53
2022/04/25 01:02:08;;;;;;;12.68;6.80;;;;;;;7.76;100.00;100835.72;5069769;28;20076;-51
2022/04/25 01:04:37;;;;;;;13.55;7.55;;;;;;;7.66;100.00;100832.72;5072040;28;20052;-51
2022/04/25 01:07:06;;;;;;;15.00;7.47;;;;;;;7.63;100.00;100838.13;5073703;28;20057;-50
2022/04/25 01:09:35;;;;;;;11.63;6.90;;;;;;;7.66;100.00;100832.72;5073845;28;20044;-52
2022/04/25 01:12:06;;;;;;;12.05;6.85;;;;;;;7.57;100.00;100844.53;5073925;28;20040;-53
2022/04/25 01:14:34;;;;;;;11.80;6.82;;;;;;;7.56;100.00;100837.59;5072871;28;20056;-47
2022/04/25 01:17:02;;;;;;;15.00;7.47;;;;;;;7.57;100.00;100838.47;5069405;28;20037;-52
2022/04/25 01:19:31;;;;;;;12.27;7.13;;;;;;;7.60;100.00;100843.53;5071945;28;20076;-50
2022/04/25 01:22:02;;;;;;;14.65;7.78;;;;;;;7.53;100.00;100835.16;5073917;28;20154;-52
2022/04/25 01:27:18;;;;;;;12.90;7.10;;;;;;;7.51;100.00;100839.63;5073759;28;20551;-50
2022/04/25 01:29:48;;;;;;;13.45;7.65;;;;;;;7.47;100.00;100832.00;5073748;28;20123;-47
2022/04/25 01:32:17;;;;;;;14.93;7.93;;;;;;;7.37;100.00;100840.31;5073675;28;20376;-51
2022/04/25 01:34:46;;;;;;;13.77;7.72;;;;;;;7.34;100.00;100826.56;5073935;28;20483;-51
2022/04/25 01:37:15;;;;;;;13.95;7.72;;;;;;;7.32;100.00;100828.41;5073729;28;20394;-50
2022/04/25 01:39:48;;;;;;;11.32;7.47;;;;;;;7.34;100.00;100831.81;5072185;28;20770;-50
2022/04/25 01:42:17;;;;;;;14.30;7.82;;;;;;;7.32;100.00;100829.28;5067660;28;20048;-50
2022/04/25 01:44:46;;;;;;;12.90;7.55;;;;;;;7.24;100.00;100829.66;5071976;28;20132;-50
2022/04/25 01:47:14;;;;;;;13.23;7.75;;;;;;;7.26;100.00;100833.03;5073571;28;20507;-53
2022/04/25 01:49:43;;;;;;;14.93;8.40;;;;;;;7.19;100.00;100836.91;5073044;28;20059;-53
2022/04/25 01:52:24;;;;;;;13.18;8.15;;;;;;;7.10;100.00;100840.84;5068976;28;20056;-51
2022/04/25 01:54:54;;;;;;;13.00;8.20;;;;;;;7.11;100.00;100834.66;5071524;28;20134;-53
2022/04/25 01:57:22;;;;;;;14.40;8.00;;;;;;;7.06;100.00;100841.06;5072976;28;20376;-47
2022/04/25 01:59:51;;;;;;;14.50;8.07;;;;;;;7.06;100.00;100838.44;5067738;28;20571;-50
2022/04/25 02:02:22;;;;;;;14.10;8.23;;;;;;;7.00;100.00;100838.75;5068275;28;20465;-48
2022/04/25 02:04:51;;;;;;;15.93;8.85;;;;;;;7.03;100.00;100835.97;5073257;28;20394;-52
2022/04/25 02:07:20;;;;;;;15.52;8.73;;;;;;;7.00;100.00;100831.75;5072956;28;20100;-48
2022/04/25 02:09:48;;;;;;;14.55;9.20;;;;;;;7.03;100.00;100835.97;5072705;28;20048;-50
2022/04/25 02:12:18;;;;;;;14.50;8.32;;;;;;;6.98;100.00;100825.78;5072768;28;20048;-48
2022/04/25 02:14:47;;;;;;;15.30;8.85;;;;;;;6.99;100.00;100831.84;5068873;28;20048;-49
2022/04/25 02:17:15;;;;;;;15.98;8.90;;;;;;;7.08;100.00;100834.81;5070349;28;20059;-50
2022/04/25 02:19:45;;;;;;;14.07;8.88;;;;;;;7.14;100.00;100828.44;5072767;28;20040;-52
2022/04/25 02:22:16;;;;;;;15.82;9.23;;;;;;;7.10;100.00;100826.91;5072521;28;20062;-48
2022/04/25 02:24:44;;;;;;;17.05;9.27;;;;;;;7.09;100.00;100827.84;5072566;28;20084;-46
2022/04/25 02:27:12;;;;;;;13.88;8.68;;;;;;;7.03;100.00;100830.75;5072534;28;20384;-50
2022/04/25 02:29:44;;;;;;;16.42;9.95;;;;;;;6.94;100.00;100832.91;5071060;28;20102;-49
2022/04/25 02:32:12;;;;;;;17.95;8.68;;;;;;;6.98;100.00;100824.91;5070366;28;20044;-48
2022/04/25 02:34:42;;;;;;;14.02;9.10;;;;;;;6.88;100.00;100829.75;5068396;28;20056;-49
2022/04/25 02:37:10;;;;;;;14.32;8.68;;;;;;;6.77;100.00;100827.66;5071425;28;20135;-52
2022/04/25 02:39:39;;;;;;;15.43;9.65;;;;;;;6.74;100.00;100833.88;5071268;28;20055;-49
2022/04/25 02:42:07;;;;;;;15.90;9.35;;;;;;;6.73;100.00;100829.56;5065486;28;20571;-53
2022/04/25 02:44:35;;;;;;;17.85;8.75;;;;;;;6.75;100.00;100826.91;5069852;28;20044;-51
2022/04/25 02:47:06;;;;;;;15.73;8.80;;;;;;;6.79;100.00;100831.06;5072199;28;20072;-52
2022/04/25 02:49:34;;;;;;;18.27;9.55;;;;;;;6.76;100.00;100825.97;5072078;28;20044;-51
2022/04/25 02:52:03;;;;;;;15.50;9.38;;;;;;;6.68;100.00;100828.97;5072164;28;20041;-52
2022/04/25 02:54:32;;;;;;;16.05;9.50;;;;;;;6.69;100.00;100828.03;5070929;28;20499;-53
2022/04/25 02:57:01;;;;;;;15.80;9.07;;;;;;;6.72;100.00;100825.28;5068162;28;20049;-51
2022/04/25 02:59:29;;;;;;;15.45;9.45;;;;;;;6.79;100.00;100825.84;5067826;28;20376;-51
2022/04/25 03:01:58;;;;;;;17.20;10.32;;;;;;;6.72;100.00;100824.44;5070406;28;20128;-53
2022/04/25 03:04:28;;;;;;;17.92;10.07;;;;;;;6.86;100.00;100824.59;5071784;28;20052;-52
2022/04/25 03:06:56;;;;;;;17.02;11.30;;;;;;;6.81;100.00;100828.38;5071776;28;20499;-51
2022/04/25 03:09:26;;;;;;;15.25;9.50;;;;;;;6.91;100.00;100827.84;5069911;28;20048;-49
2022/04/25 03:11:55;;;;;;;16.85;9.70;;;;;;;6.93;100.00;100825.97;5065260;28;20076;-49
2022/04/25 03:14:23;;;;;;;15.65;9.50;;;;;;;6.92;100.00;100831.28;5070752;28;20040;-50
2022/04/25 03:16:51;;;;;;;14.75;8.98;;;;;;;6.84;100.00;100829.03;5071411;28;20060;-52
2022/04/25 03:19:20;;;;;;;16.30;9.88;;;;;;;6.70;100.00;100832.34;5067083;28;20076;-50
2022/04/25 03:21:50;;;;;;;14.10;8.68;;;;;;;6.74;100.00;100838.28;5067745;28;20466;-51
2022/04/25 03:24:18;;;;;;;15.75;9.30;;;;;;;6.86;100.00;100837.69;5071515;28;20083;-51
2022/04/25 03:26:46;;;;;;;13.63;9.25;;;;;;;6.82;100.00;100833.53;5071242;28;20059;-53
2022/04/25 03:29:15;;;;;;;21.60;10.10;;;;;;;6.73;100.00;100840.03;5070913;28;20060;-51
2022/04/25 03:31:44;;;;;;;16.70;9.20;;;;;;;6.74;100.00;100841.72;5070942;28;20511;-48
2022/04/25 03:34:12;;;;;;;19.35;10.10;;;;;;;6.77;100.00;100844.19;5071149;28;20054;-52
2022/04/25 03:36:40;;;;;;;16.38;9.82;;;;;;;6.85;100.00;100846.44;5070133;28;20052;-49
2022/04/25 03:39:10;;;;;;;17.17;10.18;;;;;;;6.81;100.00;100844.06;5068164;28;20488;-48
2022/04/25 03:41:38;;;;;;;16.17;10.05;;;;;;;6.79;100.00;100846.75;5065709;28;20045;-48
2022/04/25 03:44:07;;;;;;;17.67;10.55;;;;;;;6.72;100.00;100850.56;5069459;28;20048;-51
2022/04/25 03:46:35;;;;;;;17.25;10.40;;;;;;;6.68;100.00;100849.88;5067072;28;20078;-52
2022/04/25 03:49:03;;;;;;;17.30;10.43;;;;;;;6.65;100.00;100852.63;5067938;28;20040;-52
2022/04/25 03:51:31;;;;;;;20.02;11.02;;;;;;;6.69;100.00;100845.50;5071115;28;20051;-50
2022/04/25 03:54:00;;;;;;;16.30;9.85;;;;;;;6.71;100.00;100854.97;5071478;28;20040;-48
2022/04/25 03:59:15;;;;;;;18.83;10.55;;;;;;;6.72;100.00;100858.41;5071127;28;20075;-49
2022/04/25 04:01:43;;;;;;;16.75;10.15;;;;;;;6.77;100.00;100861.66;5071108;28;20550;-50
2022/04/25 04:04:12;;;;;;;17.23;10.40;;;;;;;6.77;100.00;100861.66;5070993;28;20057;-47
2022/04/25 04:06:40;;;;;;;24.13;10.95;;;;;;;6.75;100.00;100871.34;5070922;28;20057;-50
2022/04/25 04:11:52;;;;;;;20.10;10.60;;;;;;;6.80;100.00;100865.88;5070817;28;20117;-53
2022/04/25 04:14:20;;;;;;;16.25;10.40;;;;;;;6.82;100.00;100867.50;5071235;28;20040;-51
2022/04/25 04:16:49;;;;;;;17.80;12.02;;;;;;;6.80;100.00;100869.34;5070886;28;20458;-47
2022/04/25 04:19:17;;;;;;;16.35;10.25;;;;;;;6.87;100.00;100873.38;5070822;28;20056;-49
2022/04/25 04:21:45;;;;;;;18.80;11.48;;;;;;;6.85;100.00;100875.19;5070752;28;20043;-46
2022/04/25 04:24:14;;;;;;;21.10;11.20;;;;;;;6.90;100.00;100875.81;5070445;28;20049;-48
2022/04/25 04:26:42;;;;;;;16.67;11.10;;;;;;;6.87;100.00;100872.50;5070768;28;20049;-51
2022/04/25 04:29:13;;;;;;;21.05;12.18;;;;;;;6.85;100.00;100867.34;5070530;28;20051;-48
2022/04/25 04:31:41;;;;;;;20.58;12.38;;;;;;;6.87;100.00;100870.75;5070946;28;20068;-50
2022/04/25 04:34:09;;;;;;;18.90;12.43;;;;;;;6.93;100.00;100873.03;5070388;28;20074;-50
2022/04/25 04:36:37;;;;;;;21.38;13.55;;;;;;;6.97;100.00;100872.88;5071382;28;20076;-53
2022/04/25 04:39:06;;;;;;;25.70;14.18;;;;;;;6.96;100.00;100876.44;5074767;28;20442;-53
2022/04/25 04:41:34;;;;;;;21.80;13.25;;;;;;;7.00;100.00;100880.59;5074933;28;20517;-49
2022/04/25 04:44:03;;;;;;;25.02;13.68;;;;;;;7.07;100.00;100884.59;5074936;28;20392;-49
2022/04/25 04:46:33;;;;;;;20.60;13.02;;;;;;;7.07;100.00;100888.03;5074461;28;20048;-51
2022/04/25 04:49:01;;;;;;;20.88;13.70;;;;;;;7.03;100.00;100885.66;5074329;28;20064;-48
2022/04/25 04:51:29;;;;;;;21.08;13.35;;;;;;;7.14;100.00;100888.59;5074103;28;20045;-48
2022/04/25 04:53:59;;;;;;;22.33;13.43;;;;;;;7.12;100.00;100887.84;5074534;28;20052;-50
2022/04/25 04:56:28;;;;;;;23.77;13.70;;;;;;;7.14;100.00;100898.22;5074340;28;20434;-52
2022/04/25 04:58:56;;;;;;;22.48;14.52;;;;;;;7.15;100.00;100898.13;5070294;28;20097;-50
2022/04/25 05:01:25;;;;;;;23.63;14.70;;;;;;;7.10;100.00;100903.59;5070320;28;20044;-48
2022/04/25 05:03:58;;;;;;;21.00;14.02;;;;;;;7.21;100.00;100904.81;5074549;28;20103;-50
2022/04/25 05:06:27;;;;;;;24.27;14.00;;;;;;;7.20;100.00;100910.97;5074309;28;20052;-51
2022/04/25 05:08:56;;;;;;;20.45;13.35;;;;;;;7.21;100.00;100910.91;5074327;28;20044;-51
2022/04/25 05:11:24;;;;;;;20.48;13.63;;;;;;;7.20;100.00;100913.59;5074000;28;20557;-51
2022/04/25 05:13:52;;;;;;;22.60;13.48;;;;;;;7.27;100.00;100912.38;5074248;28;20163;-48
2022/04/25 05:16:21;;;;;;;20.95;13.82;;;;;;;7.43;100.00;100920.28;5072592;28;20136;-52
2022/04/25 05:18:49;;;;;;;21.25;13.73;;;;;;;7.39;100.00;100926.59;5071677;28;20083;-50
2022/04/25 05:21:19;;;;;;;20.50;13.00;;;;;;;7.36;100.00;100921.53;5069902;28;20542;-51
2022/04/25 05:23:53;;;;;;;23.25;14.15;;;;;;;7.35;100.00;100939.00;5072254;28;20040;-50
2022/04/25 05:26:21;;;;;;;21.20;13.90;;;;;;;7.37;100.00;100937.13;5073579;28;20099;-48
2022/04/25 05:28:49;;;;;;;23.85;14.07;;;;;;;7.36;100.00;100942.44;5073407;28;20048;-48
2022/04/25 05:31:18;;;;;;;24.35;16.13;;;;;;;7.40;100.00;100942.25;5073149;28;20059;-49
2022/04/25 05:33:46;;;;;;;24.30;15.65;;;;;;;7.49;100.00;100943.53;5073747;28;20049;-50
2022/04/25 05:36:14;;;;;;;23.60;16.13;;;;;;;7.42;100.00;100939.53;5073816;28;20471;-50
2022/04/25 05:38:44;;;;;;;25.45;15.73;;;;;;;7.46;100.00;100943.69;5073204;28;20055;-51
2022/04/25 05:41:13;;;;;;;19.98;14.35;;;;;;;7.48;100.00;100952.31;5073841;28;20119;-50
2022/04/25 05:43:41;;;;;;;25.27;16.42;;;;;;;7.49;100.00;100947.94;5072628;28;20044;-49
2022/04/25 05:46:10;;;;;;;21.92;14.25;;;;;;;7.56;100.00;100952.75;5072842;28;20132;-49
2022/04/25 05:54:23;;;;;;;24.15;15.15;;;;;;;7.73;100.00;100961.53;5030884;28;20071;-49
2022/04/25 05:56:51;;;;;;;26.08;16.30;;;;;;;7.65;100.00;100959.31;5063605;28;20053;-48
2022/04/25 05:59:20;;;;;;;26.52;16.92;;;;;;;7.74;100.00;100956.22;5073041;28;20406;-49
2022/04/25 06:01:48;;;;;;;24.80;16.48;;;;;;;7.78;100.00;100964.75;5073075;28;20127;-49
2022/04/25 06:04:17;;;;;;;25.02;15.82;;;;;;;7.72;100.00;100952.00;5072840;28;20098;-50
2022/04/25 06:06:45;;;;;;;26.98;16.67;;;;;;;7.67;100.00;100959.22;5072807;28;20436;-49
2022/04/25 06:09:15;;;;;;;28.73;18.02;;;;;;;7.71;100.00;100961.59;5072799;28;20063;-53
2022/04/25 06:11:45;;;;;;;28.55;18.75;;;;;;;7.69;100.00;100963.47;5072819;28;20455;-50
2022/04/25 06:14:14;;;;;;;30.10;19.00;;;;;;;7.71;100.00;100966.84;5072111;28;20135;-48
2022/04/25 06:16:42;;;;;;;34.25;19.15;;;;;;;7.81;100.00;100974.22;5068352;28;20571;-50
2022/04/25 06:19:11;;;;;;;28.70;19.05;;;;;;;7.83;100.00;100975.84;5069554;28;20424;-53
2022/04/25 06:21:39;;;;;;;31.98;20.25;;;;;;;7.84;100.00;100976.69;5072108;28;20052;-48
2022/04/25 06:24:07;;;;;;;33.22;19.65;;;;;;;7.85;100.00;100978.38;5072451;28;20049;-50
2022/04/25 06:26:36;;;;;;;35.25;20.00;;;;;;;7.86;100.00;100987.94;5072411;28;20472;-51
2022/04/25 06:29:06;;;;;;;36.92;20.67;;;;;;;8.00;100.00;100979.34;5071137;28;20515;-52
2022/04/25 06:31:35;;;;;;;31.45;20.52;;;;;;;7.99;100.00;100988.13;5068599;28;20095;-50
2022/04/25 06:34:03;;;;;;;33.30;21.52;;;;;;;8.02;100.00;100991.47;5069856;28;20090;-48
2022/04/25 06:36:32;;;;;;;33.15;20.40;;;;;;;7.94;100.00;100994.47;5069821;28;20044;-48
2022/04/25 06:39:02;;;;;;;33.25;20.95;;;;;;;7.97;100.00;100990.84;5067547;28;20044;-52
2022/04/25 06:41:30;;;;;;;33.22;21.00;;;;;;;7.95;100.00;100998.78;5072300;28;20055;-50
2022/04/25 06:43:59;;;;;;;31.48;20.17;;;;;;;7.94;100.00;100997.06;5072141;28;20033;-50
2022/04/25 06:46:29;;;;;;;27.92;19.58;;;;;;;8.04;100.00;101001.84;5072144;28;20714;-50
2022/04/25 06:51:43;;;;;;;28.98;19.20;;;;;;;8.01;100.00;101000.22;5070739;28;20079;-53
2022/04/25 06:54:11;;;;;;;31.42;19.83;;;;;;;8.03;100.00;101008.00;5071644;28;20070;-53
2022/04/25 06:56:40;;;;;;;32.65;21.48;;;;;;;8.13;100.00;101004.81;5071351;28;20120;-52
2022/04/25 06:59:08;;;;;;;30.35;20.08;;;;;;;8.26;100.00;101004.19;5071631;28;20072;-53
2022/04/25 07:01:39;;;;;;;29.35;19.80;;;;;;;8.10;100.00;101005.00;5072026;28;20511;-54
2022/04/25 07:04:08;;;;;;;31.08;20.48;;;;;;;8.12;100.00;101013.59;5071667;28;20044;-50
2022/04/25 07:06:36;;;;;;;30.65;20.25;;;;;;;8.15;100.00;101014.38;5071755;28;20106;-53
2022/04/25 07:09:04;;;;;;;27.88;19.20;;;;;;;8.06;100.00;101013.94;5071942;28;20047;-50
2022/04/25 07:11:33;;;;;;;29.98;19.98;;;;;;;8.09;100.00;101018.19;5072132;28;20565;-50
2022/04/25 07:14:03;;;;;;;27.50;18.88;;;;;;;8.04;100.00;101022.81;5071826;28;20036;-52
2022/04/25 07:16:31;;;;;;;27.92;18.45;;;;;;;8.10;100.00;101015.47;5071738;28;20083;-51
2022/04/25 07:19:01;;;;;;;30.00;19.95;;;;;;;8.08;100.00;101033.03;5071690;28;20083;-52
2022/04/25 07:30:06;;;;;;;28.58;17.52;;;;;;;7.76;100.00;101043.38;5071626;28;20143;-50
2022/04/25 07:32:39;;;;;;;27.48;17.48;;;;;;;7.62;100.00;101040.59;5071579;28;20044;-52
2022/04/25 07:35:10;;;;;;;27.85;17.02;;;;;;;7.73;100.00;101040.94;5071318;28;20048;-54
2022/04/25 07:37:39;;;;;;;26.73;16.80;;;;;;;7.79;100.00;101029.31;5070870;28;20110;-51
2022/04/25 07:40:09;;;;;;;27.30;16.02;;;;;;;7.77;100.00;101039.84;5066914;28;20499;-51
2022/04/25 07:42:38;;;;;;;34.60;18.05;;;;;;;7.81;100.00;101040.53;5067335;28;20411;-50
2022/04/25 07:45:07;;;;;;;28.27;18.45;;;;;;;7.67;100.00;101037.78;5071221;28;20361;-50
2022/04/25 07:47:36;;;;;;;26.95;16.90;;;;;;;7.63;100.00;101039.69;5070953;28;20048;-51
2022/04/25 07:50:05;;;;;;;26.25;16.40;;;;;;;7.73;100.00;101040.94;5070564;28;20048;-49
2022/04/25 07:52:35;;;;;;;31.83;18.65;;;;;;;7.61;100.00;101042.38;5071064;28;20052;-48
2022/04/25 07:55:05;;;;;;;28.75;17.63;;;;;;;7.58;100.00;101049.53;5069206;28;20041;-51
2022/04/25 07:57:33;;;;;;;24.00;16.50;;;;;;;7.69;100.00;101051.63;5065409;28;20050;-50
2022/04/25 08:00:02;;;;;;;33.10;18.25;;;;;;;7.72;100.00;101060.16;5069812;28;20052;-50
2022/04/25 08:02:30;;;;;;;30.42;18.30;;;;;;;7.64;100.00;101061.50;5071556;28;20507;-48
2022/04/25 08:04:59;;;;;;;29.02;18.27;;;;;;;7.57;100.00;101060.94;5071086;28;20048;-51
2022/04/25 08:07:28;;;;;;;30.23;18.08;;;;;;;7.66;100.00;101062.25;5073596;28;20052;-49
2022/04/25 08:09:58;;;;;;;28.30;17.02;;;;;;;7.67;100.00;101064.78;5075405;28;20391;-50
2022/04/25 08:18:00;;;;;;;30.55;18.83;;;;;;;7.58;100.00;101067.84;5074852;28;20045;-48
2022/04/25 08:20:29;;;;;;;30.70;18.17;;;;;;;7.67;100.00;101069.19;5074651;28;20093;-48
2022/04/25 08:22:58;;;;;;;34.30;19.50;;;;;;;7.65;100.00;101068.41;5071741;28;20080;-52
2022/04/25 08:25:30;;;;;;;33.92;19.00;;;;;;;7.70;100.00;101072.50;5070289;28;20053;-53
2022/04/25 08:27:59;;;;;;;32.40;20.10;;;;;;;7.68;100.00;101076.13;5074480;28;20049;-52
2022/04/25 08:30:28;;;;;;;32.55;18.95;;;;;;;7.84;100.00;101076.19;5074490;28;20510;-54
2022/04/25 08:32:57;;;;;;;34.15;19.73;;;;;;;7.85;100.00;101076.09;5074283;28;20040;-50
2022/04/25 08:35:25;;;;;;;37.05;19.58;;;;;;;7.90;100.00;101076.72;5070895;28;20538;-50
2022/04/25 08:37:54;;;;;;;35.50;19.73;;;;;;;7.97;100.00;101086.91;5070113;28;20906;-50
2022/04/25 08:40:23;;;;;;;29.50;17.63;;;;;;;8.07;100.00;101090.75;5074582;28;20429;-52
2022/04/25 08:42:54;;;;;;;31.02;18.92;;;;;;;7.95;100.00;101085.22;5074714;28;20502;-52
2022/04/25 08:45:23;;;;;;;31.80;19.27;;;;;;;8.02;100.00;101096.22;5074493;28;20094;-52
2022/04/25 08:47:56;;;;;;;31.27;18.55;;;;;;;8.05;100.00;101098.69;5071137;28;20061;-53
2022/04/25 08:50:24;;;;;;;30.92;18.83;;;;;;;8.01;100.00;101099.75;5069668;28;20040;-51
2022/04/25 08:52:53;;;;;;;30.58;18.92;;;;;;;8.04;100.00;101096.97;5073969;28;20132;-52
2022/04/25 08:55:23;;;;;;;32.47;19.23;;;;;;;8.09;100.00;101091.53;5074197;28;20109;-52
2022/04/25 08:57:54;;;;;;;28.75;18.00;;;;;;;8.12;100.00;101097.44;5074191;28;20068;-53
2022/04/25 09:00:23;;;;;;;33.88;19.75;;;;;;;8.21;100.00;101101.38;5074002;28;20059;-52
2022/04/25 09:02:51;;;;;;;31.20;18.90;;;;;;;8.23;100.00;101107.38;5074320;28;20045;-51
2022/04/25 09:05:20;;;;;;;31.30;18.77;;;;;;;8.19;100.00;101111.06;5069660;28;20044;-52
2022/04/25 09:07:48;;;;;;;29.05;19.38;;;;;;;8.28;100.00;101118.47;5070418;28;20089;-48
2022/04/25 09:10:19;;;;;;;33.92;19.65;;;;;;;8.34;100.00;101124.34;5073659;28;20057;-48
2022/04/25 09:12:48;;;;;;;31.48;18.77;;;;;;;8.43;100.00;101127.31;5073988;28;20052;-52
2022/04/25 09:15:22;;;;;;;34.00;20.13;;;;;;;8.45;100.00;101130.75;5073531;28;20079;-50
2022/04/25 09:17:55;;;;;;;28.02;17.65;;;;;;;8.51;100.00;101126.97;5072689;28;20047;-51
2022/04/25 09:20:26;;;;;;;32.45;19.98;;;;;;;8.53;100.00;101132.13;5073509;28;20048;-53
2022/04/25 09:22:55;;;;;;;28.85;17.58;;;;;;;8.51;100.00;101137.47;5073776;28;20484;-53
2022/04/25 09:25:23;;;;;;;31.50;18.73;;;;;;;8.54;100.00;101139.91;5073845;28;20044;-52
2022/04/25 09:28:14;;;;;;;32.80;18.50;;;;;;;8.59;100.00;101139.69;5073507;28;20545;-51
2022/04/25 09:31:00;;;;;;;33.78;18.73;;;;;;;8.62;100.00;101137.72;5073607;28;20375;-51
2022/04/25 09:33:29;;;;;;;28.85;17.98;;;;;;;8.76;100.00;101144.03;5073152;28;20499;-53
2022/04/25 09:35:58;;;;;;;26.40;18.00;;;;;;;8.70;100.00;101146.97;5073397;28;20155;-49
2022/04/25 09:38:30;;;;;;;27.02;17.60;;;;;;;8.59;100.00;101148.38;5073347;28;20048;-49
2022/04/25 09:41:00;;;;;;;28.30;18.15;;;;;;;8.61;100.00;101146.53;5071470;28;20048;-51
2022/04/25 09:43:30;;;;;;;31.20;19.27;;;;;;;8.50;100.00;101137.53;5068908;28;20466;-50
2022/04/25 09:46:06;;;;;;;31.10;18.65;;;;;;;8.60;100.00;101142.22;5070697;28;20052;-54
2022/04/25 09:48:35;;;;;;;31.35;18.52;;;;;;;8.58;100.00;101141.44;5073517;28;20074;-52
2022/04/25 09:51:05;;;;;;;31.65;19.58;;;;;;;8.57;100.00;101147.59;5072979;28;20151;-54
2022/04/25 09:53:44;;;;;;;30.70;19.65;;;;;;;8.62;100.00;101150.84;5073128;28;20364;-51
2022/04/25 09:56:14;;;;;;;33.13;19.52;;;;;;;8.71;100.00;101157.41;5073307;28;20098;-52
2022/04/25 09:58:44;;;;;;;31.52;18.25;;;;;;;8.71;100.00;101154.78;5073257;28;20048;-55
2022/04/25 10:01:15;;;;;;;28.77;18.40;;;;;;;8.67;100.00;101161.13;5072711;28;20496;-51
2022/04/25 10:03:44;;;;;;;32.38;17.90;;;;;;;8.77;100.00;101161.47;5072176;28;20048;-52
2022/04/25 10:06:12;;;;;;;31.33;20.05;;;;;;;8.80;100.00;101159.50;5068664;28;20057;-52
2022/04/25 10:08:42;;;;;;;33.00;19.88;;;;;;;8.81;100.00;101155.13;5069793;28;20048;-50
2022/04/25 10:11:14;;;;;;;32.67;18.35;;;;;;;8.86;100.00;101166.25;5072283;28;20049;-53
2022/04/25 10:13:43;;;;;;;31.30;19.45;;;;;;;8.90;100.00;101169.53;5072783;28;20052;-49
2022/04/25 10:16:11;;;;;;;31.95;19.27;;;;;;;8.85;100.00;101164.53;5072755;28;20754;-53
2022/04/25 10:18:42;;;;;;;33.85;20.13;;;;;;;8.83;100.00;101166.38;5072787;28;20094;-54
2022/04/25 10:21:11;;;;;;;31.15;18.25;;;;;;;9.00;100.00;101167.25;5072574;28;20113;-50
2022/04/25 10:23:41;;;;;;;30.75;19.15;;;;;;;9.05;100.00;101173.13;5072681;28;20063;-52
2022/04/25 10:26:10;;;;;;;29.33;18.27;;;;;;;9.08;100.00;101170.31;5072233;28;20056;-51
2022/04/25 10:28:45;;;;;;;27.30;16.60;;;;;;;9.07;100.00;101171.28;5072224;28;20060;-49
2022/04/25 10:31:20;;;;;;;27.77;16.30;;;;;;;9.00;100.00;101172.50;5070787;28;20056;-50
2022/04/25 10:33:52;;;;;;;29.58;16.98;;;;;;;8.96;100.00;101182.34;5068122;28;20521;-51
2022/04/25 10:36:43;;;;;;;27.48;16.20;;;;;;;8.81;100.00;101186.63;5070837;28;20062;-51
2022/04/25 10:39:13;;;;;;;25.85;15.80;;;;;;;8.72;100.00;101182.69;5071747;28;20110;-53
2022/04/25 10:44:56;;;;;;;26.60;16.15;;;;;;;8.78;100.00;101178.88;5071463;28;20052;-52
2022/04/25 10:47:26;;;;;;;28.27;14.77;;;;;;;8.83;100.00;101183.91;5071898;28;20105;-53
2022/04/25 10:50:09;;;;;;;25.75;14.68;;;;;;;8.98;100.00;101184.88;5070786;28;20049;-50
2022/04/25 10:53:01;;;;;;;25.45;15.43;;;;;;;8.95;100.00;101181.47;5069161;28;20063;-50
2022/04/25 10:55:38;;;;;;;28.48;16.77;;;;;;;8.89;100.00;101188.81;5068022;28;20056;-50
2022/04/25 10:58:12;;;;;;;25.15;15.90;;;;;;;9.00;100.00;101193.50;5072059;28;20083;-52
2022/04/25 11:00:54;;;;;;;25.73;15.30;;;;;;;9.12;100.00;101195.47;5071946;28;20414;-52
2022/04/25 11:03:28;;;;;;;24.85;15.75;;;;;;;9.27;100.00;101199.03;5072009;28;20419;-52
2022/04/25 11:05:59;;;;;;;26.50;16.08;;;;;;;9.24;100.00;101199.22;5071674;28;20420;-51
2022/04/25 11:08:38;;;;;;;23.27;14.43;;;;;;;9.35;100.00;101206.50;5067925;28;20051;-50
2022/04/25 11:11:25;;;;;;;24.65;14.10;;;;;;;9.35;100.00;101202.09;5068781;28;20083;-53
2022/04/25 11:14:14;;;;;;;21.60;14.50;;;;;;;9.37;100.00;101207.28;5071189;28;20469;-49
2022/04/25 11:16:42;;;;;;;21.40;14.07;;;;;;;9.50;100.00;101207.47;5071377;28;20051;-50
2022/04/25 11:19:15;;;;;;;24.50;14.23;;;;;;;9.48;100.00;101207.53;5071509;28;20040;-52
2022/04/25 11:21:49;;;;;;;24.48;15.55;;;;;;;9.46;100.00;101212.00;5071463;28;20099;-48
2022/04/25 11:24:28;;;;;;;21.48;13.32;;;;;;;9.47;100.00;101213.72;5071658;28;20542;-52
2022/04/25 11:26:58;;;;;;;24.60;14.20;;;;;;;9.51;100.00;101214.41;5071660;28;20048;-54
2022/04/25 11:29:27;;;;;;;21.00;13.65;;;;;;;9.60;100.00;101220.00;5071424;28;20041;-49
2022/04/25 11:32:26;;;;;;;21.05;14.25;;;;;;;9.53;100.00;101215.16;5070998;28;20044;-54
2022/04/25 11:34:59;;;;;;;24.00;14.20;;;;;;;9.53;100.00;101218.66;5070859;28;20120;-50
2022/04/25 11:37:32;;;;;;;20.48;14.30;;;;;;;9.46;100.00;101214.66;5066334;28;20045;-52
2022/04/25 11:40:04;;;;;;;22.80;14.80;;;;;;;9.53;100.00;101221.28;5068921;28;20143;-47
2022/04/25 11:42:34;;;;;;;24.20;14.40;;;;;;;9.59;100.00;101220.09;5070482;28;20055;-47
2022/04/25 11:45:05;;;;;;;23.55;14.20;;;;;;;9.54;100.00;101230.81;5074288;28;20036;-48
2022/04/25 11:47:33;;;;;;;22.60;14.20;;;;;;;9.50;100.00;101231.91;5083714;28;20487;-52
2022/04/25 11:50:03;;;;;;;22.83;14.50;;;;;;;9.61;100.00;101226.09;5086865;28;20048;-52
2022/04/25 11:52:33;;;;;;;24.38;14.90;;;;;;;9.57;100.00;101228.06;5079069;28;20055;-48
2022/04/25 11:55:01;;;;;;;20.35;13.43;;;;;;;9.67;100.00;101238.03;5071869;28;20053;-49
2022/04/25 11:57:38;;;;;;;21.63;13.90;;;;;;;9.80;100.00;101225.91;5077283;28;20044;-52